Latest Weather Observations for Hope Banks Beacon

IDQ60901

Issued at 7:31 pm EST Thursday 30 June 2022 (issued every 10 minutes, with the page automatically refreshed every 10 minutes)

About weather observations | Map of Brisbane area stations | Latest observations for Brisbane area | Other Formats
Station Details ID: 200897 Name: HOPE BANKS BEACON Lat: -27.43 Lon: 153.29 Height: 7.0 m
Data from the previous 72 hours. | See also: Recent months for locations in Queensland
Date/Time
EST
Temp
°C
App
Temp
°C
Dew
Point
°C
Rel
Hum
%
Delta-T
°C
Wind Press
QNH
hPa
Press
MSL
hPa
Rain since
9am
mm
Dir  Spd
km/h
Gust
km/h
Spd
kts
Gust
kts
30/07:30pm - - - - - SSE 4 6 2 3 - - -
30/07:00pm - - - - - SE 6 7 3 4 - - -
30/06:30pm - - - - - SE 6 7 3 4 - - -
30/06:00pm - - - - - ESE 11 15 6 8 - - -
30/05:30pm - - - - - ESE 13 17 7 9 - - -
30/05:00pm - - - - - ESE 17 20 9 11 - - -
30/04:30pm - - - - - ESE 15 17 8 9 - - -
30/04:00pm - - - - - SE 17 19 9 10 - - -
30/03:30pm - - - - - SE 13 17 7 9 - - -
30/03:00pm - - - - - ESE 15 17 8 9 - - -
30/02:30pm - - - - - SE 15 17 8 9 - - -
30/02:00pm - - - - - SE 17 20 9 11 - - -
30/01:30pm - - - - - SE 11 13 6 7 - - -
30/01:00pm - - - - - SE 6 6 3 3 - - -
30/12:30pm - - - - - SSE 4 6 2 3 - - -
30/12:00pm - - - - - SSE 6 7 3 4 - - -
30/11:30am - - - - - S 9 15 5 8 - - -
30/11:00am - - - - - S 11 13 6 7 - - -
30/10:30am - - - - - SSW 2 6 1 3 - - -
30/10:00am - - - - - SW 6 9 3 5 - - -
30/09:30am - - - - - SSW 11 13 6 7 - - -
30/09:00am - - - - - SSW 11 15 6 8 - - -
30/08:30am - - - - - SW 11 13 6 7 - - -
30/08:00am - - - - - SSW 11 15 6 8 - - -
30/07:30am - - - - - SW 15 19 8 10 - - -
30/07:00am - - - - - SW 13 13 7 7 - - -
30/06:30am - - - - - WSW 13 15 7 8 - - -
30/06:00am - - - - - SW 15 15 8 8 - - -
30/05:30am - - - - - SW 15 17 8 9 - - -
30/05:00am - - - - - SW 11 13 6 7 - - -
30/04:30am - - - - - SSE 7 9 4 5 - - -
30/04:00am - - - - - S 11 13 6 7 - - -
30/03:30am - - - - - SW 11 13 6 7 - - -
30/03:00am - - - - - SSW 15 17 8 9 - - -
30/02:30am - - - - - SW 13 19 7 10 - - -
30/02:00am - - - - - WSW 17 20 9 11 - - -
30/01:30am - - - - - SSW 15 17 8 9 - - -
30/01:00am - - - - - WSW 17 17 9 9 - - -
30/12:30am - - - - - SW 11 13 6 7 - - -
30/12:00am - - - - - WSW 13 15 7 8 - - -
 
Date/Time
EST
Temp
°C
App
Temp
°C
Dew
Point
°C
Rel
Hum
%
Delta-T
°C
Wind Press
QNH
hPa
Press
MSL
hPa
Rain since
9am
mm
Dir  Spd
km/h
Gust
km/h
Spd
kts
Gust
kts
29/11:30pm - - - - - SSW 9 11 5 6 - - -
29/11:00pm - - - - - SSW 13 15 7 8 - - -
29/10:30pm - - - - - S 13 15 7 8 - - -
29/10:00pm - - - - - S 13 15 7 8 - - -
29/09:30pm - - - - - S 15 19 8 10 - - -
29/09:00pm - - - - - S 15 19 8 10 - - -
29/08:30pm - - - - - SSW 17 19 9 10 - - -
29/08:00pm - - - - - SSW 19 22 10 12 - - -
29/07:30pm - - - - - S 20 26 11 14 - - -
29/07:00pm - - - - - S 13 15 7 8 - - -
29/06:30pm - - - - - S 13 15 7 8 - - -
29/06:00pm - - - - - S 13 17 7 9 - - -
29/05:30pm - - - - - SSE 13 19 7 10 - - -
29/05:00pm - - - - - SE 15 19 8 10 - - -
29/04:30pm - - - - - SSE 15 20 8 11 - - -
29/04:00pm - - - - - SSW 13 15 7 8 - - -
29/03:30pm - - - - - SSW 17 19 9 10 - - -
29/03:00pm - - - - - S 15 19 8 10 - - -
29/02:30pm - - - - - S 19 24 10 13 - - -
29/02:00pm - - - - - SSE 11 15 6 8 - - -
29/01:30pm - - - - - SSE 15 26 8 14 - - -
29/01:00pm - - - - - S 4 9 2 5 - - -
29/12:30pm - - - - - SSW 2 2 1 1 - - -
29/12:00pm - - - - - S 13 24 7 13 - - -
29/11:30am - - - - - S 20 28 11 15 - - -
29/11:00am - - - - - S 9 24 5 13 - - -
29/10:30am - - - - - CALM 0 2 0 1 - - -
29/10:00am - - - - - SSW 15 22 8 12 - - -
29/09:30am - - - - - SSW 2 11 1 6 - - -
29/09:00am - - - - - CALM 0 4 0 2 - - -
29/08:30am - - - - - CALM 0 2 0 1 - - -
29/08:00am - - - - - SW 13 17 7 9 - - -
29/07:30am - - - - - SW 17 20 9 11 - - -
29/07:00am - - - - - SW 20 24 11 13 - - -
29/06:30am - - - - - SW 19 24 10 13 - - -
29/06:00am - - - - - SW 13 17 7 9 - - -
29/05:30am - - - - - SW 13 17 7 9 - - -
29/05:00am - - - - - WSW 19 20 10 11 - - -
29/04:30am - - - - - WSW 17 20 9 11 - - -
29/04:00am - - - - - WSW 13 17 7 9 - - -
29/03:30am - - - - - SW 11 13 6 7 - - -
29/03:00am - - - - - S 17 24 9 13 - - -
29/02:30am - - - - - SW 17 20 9 11 - - -
29/02:00am - - - - - SSW 19 24 10 13 - - -
29/01:30am - - - - - S 24 30 13 16 - - -
29/01:00am - - - - - S 26 32 14 17 - - -
29/12:30am - - - - - S 17 22 9 12 - - -
29/12:00am - - - - - S 19 22 10 12 - - -
 
Date/Time
EST
Temp
°C
App
Temp
°C
Dew
Point
°C
Rel
Hum
%
Delta-T
°C
Wind Press
QNH
hPa
Press
MSL
hPa
Rain since
9am
mm
Dir  Spd
km/h
Gust
km/h
Spd
kts
Gust
kts
28/11:30pm - - - - - S 24 30 13 16 - - -
28/11:00pm - - - - - S 22 28 12 15 - - -
28/10:30pm - - - - - SSW 20 24 11 13 - - -
28/10:00pm - - - - - S 20 26 11 14 - - -
28/09:30pm - - - - - S 20 26 11 14 - - -
28/09:00pm - - - - - S 28 32 15 17 - - -
28/08:30pm - - - - - S 22 28 12 15 - - -
28/08:00pm - - - - - S 26 33 14 18 - - -
28/07:30pm - - - - - S 26 32 14 17 - - -
28/07:00pm - - - - - S 24 32 13 17 - - -
28/06:30pm - - - - - S 26 32 14 17 - - -
28/06:00pm - - - - - S 30 37 16 20 - - -
28/05:30pm - - - - - SSE 30 35 16 19 - - -
28/05:00pm - - - - - SSE 32 41 17 22 - - -
28/04:30pm - - - - - SSE 28 35 15 19 - - -
28/04:00pm - - - - - SSE 24 30 13 16 - - -
28/03:30pm - - - - - SSE 28 35 15 19 - - -
28/03:00pm - - - - - SSE 30 39 16 21 - - -
28/02:30pm - - - - - SSE 32 39 17 21 - - -
28/02:00pm - - - - - SSE 32 37 17 20 - - -
28/01:30pm - - - - - SSE 33 39 18 21 - - -
28/01:00pm - - - - - S 32 39 17 21 - - -
28/12:30pm - - - - - SSE 35 43 19 23 - - -
28/12:00pm - - - - - SSE 35 41 19 22 - - -
28/11:30am - - - - - SSE 30 35 16 19 - - -
28/11:00am - - - - - SSE 30 39 16 21 - - -
28/10:48am - - - - - SSE 28 43 15 23 - - -
28/10:30am - - - - - S 17 22 9 12 - - -
28/10:00am - - - - - S 13 19 7 10 - - -
28/09:30am - - - - - SW 15 19 8 10 - - -
28/09:00am - - - - - WSW 15 19 8 10 - - -
28/08:30am - - - - - WSW 19 20 10 11 - - -
28/08:00am - - - - - SW 19 22 10 12 - - -
28/07:30am - - - - - SW 19 20 10 11 - - -
28/07:00am - - - - - SW 19 20 10 11 - - -
28/06:30am - - - - - SW 19 22 10 12 - - -
28/06:00am - - - - - SW 17 19 9 10 - - -
28/05:30am - - - - - SW 17 20 9 11 - - -
28/05:00am - - - - - SW 17 20 9 11 - - -
28/04:30am - - - - - SW 13 17 7 9 - - -
28/04:00am - - - - - SW 15 17 8 9 - - -
28/03:30am - - - - - SSW 15 19 8 10 - - -
28/03:00am - - - - - S 22 28 12 15 - - -
28/02:30am - - - - - S 22 26 12 14 - - -
28/02:00am - - - - - SSW 20 30 11 16 - - -
28/01:30am - - - - - S 30 37 16 20 - - -
28/01:00am - - - - - S 26 32 14 17 - - -
28/12:30am - - - - - S 30 35 16 19 - - -
28/12:00am - - - - - S 26 32 14 17 - - -
 
Date/Time
EST
Temp
°C
App
Temp
°C
Dew
Point
°C
Rel
Hum
%
Delta-T
°C
Wind Press
QNH
hPa
Press
MSL
hPa
Rain since
9am
mm
Dir  Spd
km/h
Gust
km/h
Spd
kts
Gust
kts
27/11:30pm - - - - - S 30 35 16 19 - - -
27/11:00pm - - - - - S 32 37 17 20 - - -
27/10:30pm - - - - - S 32 41 17 22 - - -
27/10:00pm - - - - - S 32 37 17 20 - - -
27/09:30pm - - - - - S 20 26 11 14 - - -
27/09:00pm - - - - - S 20 24 11 13 - - -
27/08:30pm - - - - - S 20 22 11 12 - - -
27/08:00pm - - - - - SSE 19 22 10 12 - - -

Latest Capital City Observations: Canberra | Sydney | Melbourne | Brisbane | Adelaide | Perth | Hobart | Darwin

Other formats

Comma delimited format used in spreadsheet applications
http://www.bom.gov.au/fwo/IDQ60901/IDQ60901.99497.axf

JavaScript Object Notation format (JSON) in row-major order
http://www.bom.gov.au/fwo/IDQ60901/IDQ60901.99497.json

Data quality

Most of these data are generated automatically and are frequently updated. Quality checks on data are not normally performed. It is possible for incorrect values to appear. Refer to information at About Latest Weather Observations and please check the disclaimer before using these data.